Louveira, Brazil
Current Conditions -  °F | °C
As of 2:00 PM on Sunday 21 Dec 2014 (Local Time) from SBKP Reporting Station
Rain Showers Rain Showers  
Wind Chill: 86°   Ceiling: 4000
Heat Index: 88°   Visibility: 6mi
Dew Point: 66°   Wind: 13mph
Humidity: 51%   Direction: 340°NNW
Pressure: 29.91"   Gusts: NA
Location:  23.09°S, 46.95°W
Report Text: SBKP 211600Z 34011KT 9999 VCSH BKN040 FEW045TCU 30/19 Q1013
Loading
Personal Weather Stations






























Interactive Weather Map New forecast layout! Learn more

10-Day Weather Forecast

Advertisements
Track Severe Weather on mobile